createdAt,value
2022-10-19T00:00:20.151Z,92.75
2022-10-19T00:01:01.596Z,92.93
2022-10-19T00:01:33.279Z,92.90
2022-10-19T00:02:04.886Z,92.71
2022-10-19T00:02:37.178Z,92.65
2022-10-19T00:03:08.678Z,92.56
2022-10-19T00:03:40.831Z,92.27
2022-10-19T00:04:12.410Z,92.53
2022-10-19T00:04:44.464Z,92.46
2022-10-19T00:05:16.083Z,92.26
2022-10-19T00:05:47.589Z,92.09
2022-10-19T00:06:25.982Z,92.11
2022-10-19T00:06:57.856Z,91.92
2022-10-19T00:07:29.405Z,91.71
2022-10-19T00:08:01.798Z,91.62
2022-10-19T00:08:33.299Z,91.78
2022-10-19T00:09:16.149Z,91.69
2022-10-19T00:09:47.759Z,91.66
2022-10-19T00:10:19.289Z,91.61
2022-10-19T00:10:50.817Z,91.72
2022-10-19T00:11:23.852Z,91.95
2022-10-19T00:11:55.379Z,91.90
2022-10-19T00:12:26.883Z,91.98
2022-10-19T00:12:58.606Z,92.18
2022-10-19T00:13:30.152Z,92.00
2022-10-19T00:14:02.847Z,91.93
2022-10-19T00:14:34.386Z,91.81
2022-10-19T00:15:06.451Z,91.73
2022-10-19T00:15:40.370Z,91.81
2022-10-19T00:16:14.674Z,91.82
2022-10-19T00:16:47.868Z,91.78
2022-10-19T00:17:19.391Z,91.79
2022-10-19T00:17:51.043Z,91.70
2022-10-19T00:18:22.572Z,91.67
2022-10-19T00:18:57.614Z,91.72
2022-10-19T00:19:29.378Z,91.70
2022-10-19T00:20:00.888Z,91.87
2022-10-19T00:20:32.462Z,91.83
2022-10-19T00:21:05.964Z,91.88
2022-10-19T00:21:39.170Z,91.93
2022-10-19T00:22:13.142Z,91.79
2022-10-19T00:22:45.640Z,91.90
2022-10-19T00:23:17.183Z,91.91
2022-10-19T00:23:49.765Z,92.01
2022-10-19T00:24:21.518Z,91.97
2022-10-19T00:24:53.198Z,92.14
2022-10-19T00:25:24.711Z,91.98
2022-10-19T00:25:57.278Z,91.96
2022-10-19T00:26:28.845Z,91.96
2022-10-19T00:27:00.459Z,91.83
2022-10-19T00:27:32.351Z,91.90
2022-10-19T00:28:04.483Z,91.95
2022-10-19T00:28:36.734Z,91.88
2022-10-19T00:29:09.141Z,91.84
2022-10-19T00:29:40.702Z,91.94
2022-10-19T00:30:12.234Z,91.95
2022-10-19T00:30:43.763Z,91.79
2022-10-19T00:31:17.728Z,91.83
2022-10-19T00:31:50.428Z,91.75
2022-10-19T00:32:22.187Z,91.74
2022-10-19T00:32:53.706Z,91.88
2022-10-19T00:33:25.246Z,92.04
2022-10-19T00:33:58.136Z,92.00
2022-10-19T00:34:29.670Z,92.22
2022-10-19T00:35:01.766Z,92.26
2022-10-19T00:35:33.300Z,92.28
2022-10-19T00:36:06.168Z,92.19
2022-10-19T00:36:39.978Z,92.25
2022-10-19T00:37:11.477Z,92.33
2022-10-19T00:37:43.030Z,92.30
2022-10-19T00:38:14.583Z,92.38
2022-10-19T00:38:46.241Z,92.59
2022-10-19T00:39:18.705Z,92.40
2022-10-19T00:40:22.851Z,92.32
2022-10-19T00:40:54.404Z,92.28
2022-10-19T00:41:29.082Z,92.29
2022-10-19T00:42:00.633Z,92.43
2022-10-19T00:42:32.530Z,92.47
2022-10-19T00:43:04.254Z,92.50
2022-10-19T00:43:58.609Z,92.40
2022-10-19T00:44:30.080Z,92.32
2022-10-19T00:45:14.786Z,92.62
2022-10-19T00:45:46.416Z,92.58
2022-10-19T00:46:17.923Z,92.72
2022-10-19T00:46:49.436Z,92.74
2022-10-19T00:47:23.930Z,92.59
2022-10-19T00:47:55.546Z,92.65
2022-10-19T00:48:33.014Z,92.70
2022-10-19T00:49:20.225Z,92.66
2022-10-19T00:49:52.781Z,93.11
2022-10-19T00:50:24.291Z,92.93
2022-10-19T00:50:57.841Z,92.68
2022-10-19T00:51:30.325Z,92.53
2022-10-19T00:52:06.209Z,92.71
2022-10-19T00:52:37.825Z,92.65
2022-10-19T00:53:09.878Z,92.59
2022-10-19T00:53:41.891Z,92.66
2022-10-19T00:54:14.235Z,92.61
2022-10-19T00:54:47.658Z,92.41
2022-10-19T00:55:19.323Z,92.45
2022-10-19T00:55:50.976Z,92.38
2022-10-19T00:56:23.495Z,92.46
2022-10-19T00:56:57.960Z,92.83
2022-10-19T00:57:31.560Z,92.97
2022-10-19T00:58:03.723Z,92.90
2022-10-19T00:58:36.070Z,92.80
2022-10-19T00:59:08.480Z,93.26
2022-10-19T00:59:41.107Z,93.17
2022-10-19T01:00:13.239Z,93.24
2022-10-19T01:00:45.037Z,93.46
2022-10-19T01:01:18.763Z,92.92
2022-10-19T01:01:52.034Z,92.81
2022-10-19T01:02:23.543Z,92.84
2022-10-19T01:02:55.158Z,92.75
2022-10-19T01:03:26.966Z,92.85
2022-10-19T01:03:59.158Z,92.76
2022-10-19T01:04:33.889Z,92.76
2022-10-19T01:05:06.511Z,93.41
2022-10-19T01:05:39.002Z,93.26
2022-10-19T01:06:13.686Z,93.67
2022-10-19T01:06:45.260Z,93.14
2022-10-19T01:07:16.957Z,93.03
2022-10-19T01:07:49.106Z,92.88
2022-10-19T01:08:20.810Z,92.64
2022-10-19T01:08:52.417Z,92.48
2022-10-19T01:09:23.930Z,92.77
2022-10-19T01:09:56.095Z,92.78
2022-10-19T01:10:42.669Z,92.69
2022-10-19T01:11:26.192Z,92.45
2022-10-19T01:12:52.670Z,92.49
2022-10-19T01:13:36.412Z,92.27
2022-10-19T01:14:24.977Z,92.01
2022-10-19T01:15:14.367Z,91.96
2022-10-19T01:15:59.676Z,92.25
2022-10-19T01:16:54.051Z,92.46
2022-10-19T01:17:48.497Z,92.53
2022-10-19T01:18:27.998Z,92.25
2022-10-19T01:19:19.106Z,92.16
2022-10-19T01:20:05.470Z,92.09
2022-10-19T01:21:14.486Z,92.09
2022-10-19T01:22:00.138Z,92.16
2022-10-19T01:23:12.799Z,92.40
2022-10-19T01:24:26.190Z,92.24
2022-10-19T01:25:00.522Z,92.64
2022-10-19T01:25:50.191Z,92.17
2022-10-19T01:26:48.777Z,92.09
2022-10-19T01:27:37.803Z,92.16
2022-10-19T01:28:27.276Z,92.10
2022-10-19T01:29:30.928Z,92.20
2022-10-19T01:30:28.665Z,92.21
2022-10-19T01:31:20.561Z,92.72
2022-10-19T01:32:10.351Z,92.23
2022-10-19T01:33:04.758Z,91.94
2022-10-19T01:33:42.155Z,91.95
2022-10-19T01:34:19.779Z,92.30
2022-10-19T01:35:12.566Z,92.76
2022-10-19T01:36:03.662Z,92.84
2022-10-19T01:36:40.827Z,92.84
2022-10-19T01:37:36.620Z,92.70
2022-10-19T01:38:41.681Z,92.87
2022-10-19T01:39:24.809Z,92.93
2022-10-19T01:40:22.850Z,92.52
2022-10-19T01:41:16.665Z,92.57
2022-10-19T01:41:58.225Z,92.97
2022-10-19T01:42:45.907Z,92.88
2022-10-19T01:43:31.058Z,92.63
2022-10-19T01:44:08.390Z,92.66
2022-10-19T01:44:53.036Z,92.53
2022-10-19T01:45:34.532Z,92.58
2022-10-19T01:46:12.291Z,92.59
2022-10-19T01:46:47.245Z,92.73
2022-10-19T01:47:45.393Z,92.80
2022-10-19T01:48:25.608Z,92.97
2022-10-19T01:49:08.991Z,93.00
2022-10-19T01:50:01.983Z,93.05
2022-10-19T01:50:55.737Z,93.30
2022-10-19T01:51:32.053Z,93.20
2022-10-19T01:52:06.380Z,93.02
2022-10-19T01:52:40.662Z,92.67
2022-10-19T01:53:14.031Z,92.65
2022-10-19T01:53:49.326Z,92.58
2022-10-19T01:54:22.667Z,92.38
2022-10-19T01:54:58.759Z,92.41
2022-10-19T01:55:30.559Z,92.34
2022-10-19T01:56:05.030Z,92.38
2022-10-19T01:56:39.840Z,92.32
2022-10-19T01:57:14.219Z,92.26
2022-10-19T01:58:08.226Z,92.40
2022-10-19T01:58:45.036Z,92.56
2022-10-19T01:59:19.358Z,92.40
2022-10-19T01:59:53.357Z,92.33
2022-10-19T02:01:09.042Z,92.35
2022-10-19T02:01:44.543Z,92.04
2022-10-19T02:02:18.223Z,92.46
2022-10-19T02:02:53.106Z,92.41
2022-10-19T02:03:25.916Z,92.15
2022-10-19T02:03:58.577Z,91.98
2022-10-19T02:04:31.913Z,92.04
2022-10-19T02:05:05.330Z,92.05
2022-10-19T02:05:38.891Z,91.87
2022-10-19T02:06:12.778Z,91.83
2022-10-19T02:06:44.920Z,91.87
2022-10-19T02:07:16.617Z,91.72
2022-10-19T02:07:54.711Z,91.65
2022-10-19T02:08:31.838Z,91.92
2022-10-19T02:09:03.752Z,92.09
2022-10-19T02:09:35.909Z,92.20
2022-10-19T02:10:08.171Z,92.40
2022-10-19T02:10:42.758Z,92.53
2022-10-19T02:11:15.562Z,92.48
2022-10-19T02:11:53.401Z,92.62
2022-10-19T02:12:31.555Z,92.71
2022-10-19T02:13:04.602Z,92.68
2022-10-19T02:13:38.881Z,92.39
2022-10-19T02:14:15.134Z,91.93
2022-10-19T02:14:51.850Z,91.99
2022-10-19T02:15:26.745Z,92.28
2022-10-19T02:16:02.055Z,92.30
2022-10-19T02:16:40.551Z,92.31
2022-10-19T02:17:18.169Z,92.79
2022-10-19T02:17:52.634Z,92.64
2022-10-19T02:18:29.777Z,92.45
2022-10-19T02:19:03.068Z,92.65
2022-10-19T02:19:35.074Z,92.51
2022-10-19T02:20:07.079Z,92.70
2022-10-19T02:20:38.777Z,92.63
2022-10-19T02:21:10.586Z,92.40
2022-10-19T02:21:42.558Z,92.50
2022-10-19T02:22:14.154Z,92.73
2022-10-19T02:22:45.712Z,92.48
2022-10-19T02:23:20.776Z,92.60
2022-10-19T02:23:54.177Z,92.62
2022-10-19T02:24:26.102Z,92.49
2022-10-19T02:24:57.758Z,92.39
2022-10-19T02:25:29.318Z,92.43
2022-10-19T02:26:00.989Z,92.46
2022-10-19T02:26:33.003Z,92.42
2022-10-19T02:27:07.120Z,92.43
2022-10-19T02:27:42.103Z,92.64
2022-10-19T02:28:13.784Z,92.45
2022-10-19T02:28:45.780Z,92.42
2022-10-19T02:29:17.362Z,92.46
2022-10-19T02:29:48.982Z,92.54
2022-10-19T02:30:22.313Z,92.30
2022-10-19T02:30:54.028Z,92.21
2022-10-19T02:31:26.429Z,92.05
2022-10-19T02:31:58.134Z,92.25
2022-10-19T02:32:29.822Z,92.28
2022-10-19T02:33:01.493Z,92.19
2022-10-19T02:33:33.126Z,92.30
2022-10-19T02:34:04.874Z,92.40
2022-10-19T02:34:37.539Z,92.43
2022-10-19T02:35:10.438Z,92.21
2022-10-19T02:35:42.362Z,92.04
2022-10-19T02:36:14.003Z,92.29
2022-10-19T02:36:45.683Z,92.27
2022-10-19T02:37:19.911Z,91.91
2022-10-19T02:37:55.830Z,91.90
2022-10-19T02:38:27.670Z,91.86
2022-10-19T02:38:59.439Z,91.85
2022-10-19T02:39:31.082Z,91.68
2022-10-19T02:40:03.546Z,91.60
2022-10-19T02:40:39.651Z,91.55
2022-10-19T02:41:14.474Z,91.57
2022-10-19T02:41:50.050Z,91.42
2022-10-19T02:42:27.319Z,91.38
2022-10-19T02:43:03.590Z,91.47
2022-10-19T02:43:38.934Z,91.27
2022-10-19T02:44:18.254Z,91.26
2022-10-19T02:44:58.647Z,91.13
2022-10-19T02:45:35.213Z,91.15
2022-10-19T02:46:18.470Z,91.25
2022-10-19T02:46:54.879Z,91.58
2022-10-19T02:47:35.991Z,91.78
2022-10-19T02:48:13.772Z,91.81
2022-10-19T02:48:46.640Z,91.78
2022-10-19T02:49:18.551Z,91.71
2022-10-19T02:49:51.724Z,91.60
2022-10-19T02:50:24.068Z,91.39
2022-10-19T02:50:55.608Z,90.97
2022-10-19T02:51:36.532Z,90.89
2022-10-19T02:52:10.686Z,90.91
2022-10-19T02:52:42.454Z,91.00
2022-10-19T02:53:15.153Z,90.99
2022-10-19T02:53:46.654Z,90.90
2022-10-19T02:54:18.510Z,90.77
2022-10-19T02:54:50.058Z,90.90
2022-10-19T02:55:21.578Z,90.90
2022-10-19T02:55:53.126Z,90.93
2022-10-19T02:56:24.730Z,90.69
2022-10-19T02:56:56.626Z,90.70
2022-10-19T02:57:28.152Z,90.58
2022-10-19T02:57:59.656Z,90.90
2022-10-19T02:58:31.162Z,90.96
2022-10-19T02:59:03.842Z,90.84
2022-10-19T02:59:35.354Z,90.73
2022-10-19T03:00:08.276Z,90.49
2022-10-19T03:00:39.880Z,90.67
2022-10-19T03:01:11.512Z,90.65
2022-10-19T03:01:43.046Z,90.57
2022-10-19T03:02:16.164Z,90.50
2022-10-19T03:02:48.251Z,90.33
2022-10-19T03:03:19.969Z,90.37
2022-10-19T03:03:51.491Z,90.26
2022-10-19T03:04:23.002Z,90.29
2022-10-19T03:04:54.540Z,90.58
2022-10-19T03:05:26.102Z,90.82
2022-10-19T03:05:57.598Z,90.64
2022-10-19T03:06:29.178Z,90.50
2022-10-19T03:07:01.346Z,90.49
2022-10-19T03:07:33.189Z,90.45
2022-10-19T03:08:05.210Z,90.40
2022-10-19T03:08:36.721Z,90.57
2022-10-19T03:09:08.596Z,90.46
2022-10-19T03:09:40.492Z,90.38
2022-10-19T03:10:12.014Z,90.43
2022-10-19T03:10:43.592Z,90.54
2022-10-19T03:11:15.151Z,90.69
2022-10-19T03:11:46.682Z,90.76
2022-10-19T03:12:18.722Z,90.63
2022-10-19T03:12:50.239Z,90.73
2022-10-19T03:13:22.780Z,90.91
2022-10-19T03:13:54.303Z,91.24
2022-10-19T03:14:25.840Z,91.06
2022-10-19T03:14:57.340Z,91.28
2022-10-19T03:15:29.987Z,91.45
2022-10-19T03:16:09.895Z,92.15
2022-10-19T03:16:41.402Z,92.04
2022-10-19T03:17:12.978Z,92.46
2022-10-19T03:17:44.766Z,92.31
2022-10-19T03:18:16.264Z,91.93
2022-10-19T03:18:48.981Z,91.94
2022-10-19T03:19:20.507Z,91.81
2022-10-19T03:19:52.029Z,91.98
2022-10-19T03:20:23.845Z,91.94
2022-10-19T03:21:09.214Z,91.91
2022-10-19T03:21:40.722Z,91.98
2022-10-19T03:22:14.405Z,91.93
2022-10-19T03:22:45.931Z,91.83
2022-10-19T03:23:17.474Z,91.78
2022-10-19T03:23:49.010Z,91.92
2022-10-19T03:24:20.523Z,91.92
2022-10-19T03:24:52.129Z,91.85
2022-10-19T03:25:23.716Z,91.94
2022-10-19T03:25:55.216Z,91.93
2022-10-19T03:26:26.920Z,91.97
2022-10-19T03:26:58.451Z,91.98
2022-10-19T03:27:30.009Z,91.92
2022-10-19T03:28:01.663Z,91.83
2022-10-19T03:28:33.261Z,91.83
2022-10-19T03:29:04.872Z,91.81
2022-10-19T03:29:36.404Z,91.73
2022-10-19T03:30:08.190Z,91.71
2022-10-19T03:30:39.692Z,91.74
2022-10-19T03:31:11.274Z,91.60
2022-10-19T03:31:42.838Z,91.68
2022-10-19T03:32:14.373Z,91.67
2022-10-19T03:32:46.026Z,91.77
2022-10-19T03:33:17.605Z,91.64
2022-10-19T03:33:50.440Z,91.47
2022-10-19T03:34:22.206Z,91.49
2022-10-19T03:34:53.761Z,91.39
2022-10-19T03:35:25.259Z,91.26
2022-10-19T03:36:21.258Z,91.16
2022-10-19T03:36:52.790Z,91.29
2022-10-19T03:37:24.357Z,91.28
2022-10-19T03:37:56.210Z,91.35
2022-10-19T03:38:27.725Z,91.18
2022-10-19T03:39:02.554Z,91.10
2022-10-19T03:39:34.775Z,91.34
2022-10-19T03:40:06.700Z,91.20
2022-10-19T03:40:39.884Z,91.20
2022-10-19T03:41:11.788Z,91.31
2022-10-19T03:41:43.944Z,91.36
2022-10-19T03:42:15.462Z,91.20
2022-10-19T03:42:46.966Z,91.17
2022-10-19T03:43:18.474Z,91.15
2022-10-19T03:43:50.721Z,91.17
2022-10-19T03:44:22.285Z,91.26
2022-10-19T03:44:53.820Z,91.19
2022-10-19T03:45:25.313Z,91.19
2022-10-19T03:45:56.826Z,91.08
2022-10-19T03:46:28.721Z,90.89
2022-10-19T03:47:00.214Z,90.82
2022-10-19T03:47:32.118Z,90.76
2022-10-19T03:48:04.192Z,90.94
2022-10-19T03:48:35.785Z,90.88
2022-10-19T03:49:09.057Z,90.99
2022-10-19T03:49:40.730Z,90.96
2022-10-19T03:50:14.183Z,90.93
2022-10-19T03:50:45.686Z,90.92
2022-10-19T03:51:23.557Z,90.91
2022-10-19T03:51:55.062Z,90.78
2022-10-19T03:52:26.598Z,90.91
2022-10-19T03:52:58.146Z,90.82
2022-10-19T03:53:33.114Z,90.69
2022-10-19T03:54:07.718Z,90.95
2022-10-19T03:54:39.295Z,91.02
2022-10-19T03:55:11.338Z,91.06
2022-10-19T03:55:42.896Z,90.99
2022-10-19T03:56:16.892Z,90.97
2022-10-19T03:56:48.394Z,90.92
2022-10-19T03:57:19.986Z,91.01
2022-10-19T03:57:51.532Z,90.97
2022-10-19T03:58:23.075Z,91.04
2022-10-19T03:58:56.323Z,91.09
2022-10-19T03:59:27.931Z,91.02
2022-10-19T03:59:59.438Z,90.97
2022-10-19T04:00:30.978Z,91.15
2022-10-19T04:01:07.427Z,91.24
2022-10-19T04:01:41.326Z,91.27
2022-10-19T04:02:12.886Z,91.30
2022-10-19T04:02:44.427Z,91.31
2022-10-19T04:03:15.939Z,91.36
2022-10-19T04:03:47.742Z,91.50
2022-10-19T04:04:19.983Z,91.43
2022-10-19T04:04:51.481Z,91.40
2022-10-19T04:05:22.990Z,91.36
2022-10-19T04:06:02.722Z,91.40
2022-10-19T04:06:37.742Z,91.37
2022-10-19T04:07:09.252Z,91.54
2022-10-19T04:07:40.762Z,91.68
2022-10-19T04:08:12.266Z,91.86
2022-10-19T04:08:44.816Z,92.29
2022-10-19T04:09:18.790Z,92.25
2022-10-19T04:09:50.303Z,92.10
2022-10-19T04:10:21.820Z,92.36
2022-10-19T04:10:53.330Z,92.41
2022-10-19T04:11:27.252Z,92.32
2022-10-19T04:11:58.799Z,92.45
2022-10-19T04:12:30.319Z,92.49
2022-10-19T04:13:01.838Z,92.57
2022-10-19T04:13:34.464Z,92.52
2022-10-19T04:14:06.308Z,92.38
2022-10-19T04:14:45.834Z,92.19
2022-10-19T04:15:27.699Z,91.94
2022-10-19T04:15:59.302Z,91.88
2022-10-19T04:16:32.400Z,92.02
2022-10-19T04:17:04.473Z,92.00
2022-10-19T04:17:36.233Z,91.93
2022-10-19T04:18:08.031Z,92.03
2022-10-19T04:18:39.588Z,92.09
2022-10-19T04:19:14.868Z,92.22
2022-10-19T04:19:46.415Z,92.28
2022-10-19T04:20:17.920Z,92.23
2022-10-19T04:20:49.498Z,92.07
2022-10-19T04:21:31.343Z,91.76
2022-10-19T04:22:03.246Z,91.88
2022-10-19T04:22:34.792Z,92.16
2022-10-19T04:23:06.371Z,92.27
2022-10-19T04:23:39.020Z,92.01
2022-10-19T04:24:14.124Z,91.99
2022-10-19T04:24:45.626Z,92.05
2022-10-19T04:25:17.238Z,91.94
2022-10-19T04:25:48.752Z,91.85
2022-10-19T04:26:20.804Z,91.79
2022-10-19T04:26:54.720Z,91.59
2022-10-19T04:27:26.234Z,91.84
2022-10-19T04:27:57.756Z,91.85
2022-10-19T04:28:29.768Z,91.68
2022-10-19T04:29:01.766Z,91.60
2022-10-19T04:29:33.335Z,91.61
2022-10-19T04:30:05.380Z,91.54
2022-10-19T04:30:36.952Z,91.56
2022-10-19T04:31:08.565Z,91.44
2022-10-19T04:31:40.546Z,91.52
2022-10-19T04:32:12.094Z,91.55
2022-10-19T04:32:43.608Z,91.64
2022-10-19T04:33:15.187Z,91.54
2022-10-19T04:34:23.246Z,91.30
2022-10-19T04:34:54.768Z,91.36
2022-10-19T04:35:26.290Z,91.50
2022-10-19T04:36:02.218Z,91.87
2022-10-19T04:36:34.282Z,92.19
2022-10-19T04:37:05.826Z,91.99
2022-10-19T04:37:37.339Z,91.90
2022-10-19T04:38:08.898Z,91.85
2022-10-19T04:38:40.507Z,91.90
2022-10-19T04:39:12.109Z,92.01
2022-10-19T04:39:44.573Z,91.97
2022-10-19T04:40:16.228Z,91.99
2022-10-19T04:40:47.735Z,92.02
2022-10-19T04:41:21.262Z,92.28
2022-10-19T04:41:52.841Z,92.22
2022-10-19T04:42:24.386Z,92.19
2022-10-19T04:42:55.884Z,92.33
2022-10-19T04:43:27.444Z,92.27
2022-10-19T04:44:01.292Z,92.34
2022-10-19T04:44:32.840Z,92.35
2022-10-19T04:45:04.768Z,92.21
2022-10-19T04:45:36.303Z,92.23
2022-10-19T04:46:10.466Z,92.25
2022-10-19T04:46:42.015Z,92.48
2022-10-19T04:47:13.521Z,92.58
2022-10-19T04:47:45.028Z,92.64
2022-10-19T04:48:16.564Z,92.59
2022-10-19T04:48:48.895Z,92.54
2022-10-19T04:49:20.646Z,92.47
2022-10-19T04:49:52.162Z,92.47
2022-10-19T04:50:24.563Z,92.34
2022-10-19T04:50:56.149Z,92.29
2022-10-19T04:51:27.991Z,92.37
2022-10-19T04:51:59.507Z,92.46
2022-10-19T04:52:31.240Z,92.24
2022-10-19T04:53:02.802Z,92.26
2022-10-19T04:53:35.017Z,92.18
2022-10-19T04:54:06.524Z,92.12
2022-10-19T04:54:38.044Z,92.16
2022-10-19T04:55:09.570Z,92.04
2022-10-19T04:55:44.173Z,91.96
2022-10-19T04:56:23.928Z,92.00
2022-10-19T04:56:55.431Z,91.94
2022-10-19T04:57:27.079Z,92.28
2022-10-19T04:57:58.590Z,92.78
2022-10-19T04:58:30.094Z,92.55
2022-10-19T04:59:01.700Z,92.37
2022-10-19T04:59:33.402Z,92.56
2022-10-19T05:00:05.529Z,92.36
2022-10-19T05:00:39.923Z,92.55
2022-10-19T05:01:16.627Z,92.52
2022-10-19T05:01:48.154Z,92.75
2022-10-19T05:02:19.663Z,92.64
2022-10-19T05:02:51.168Z,92.57
2022-10-19T05:03:22.720Z,92.66
2022-10-19T05:04:00.363Z,92.45
2022-10-19T05:04:32.063Z,91.96
2022-10-19T05:05:03.730Z,92.13
2022-10-19T05:05:35.647Z,92.22
2022-10-19T05:06:08.084Z,92.36
2022-10-19T05:06:39.614Z,92.41
2022-10-19T05:07:11.145Z,92.60
2022-10-19T05:07:42.685Z,92.71
2022-10-19T05:08:14.246Z,92.81
2022-10-19T05:08:48.495Z,92.62
2022-10-19T05:09:20.041Z,92.32
2022-10-19T05:09:51.557Z,92.28
2022-10-19T05:10:23.071Z,92.52
2022-10-19T05:10:54.570Z,92.53
2022-10-19T05:11:26.702Z,92.65
2022-10-19T05:11:58.231Z,92.94
2022-10-19T05:12:29.801Z,93.18
2022-10-19T05:13:02.470Z,93.27
2022-10-19T05:13:35.019Z,93.67
2022-10-19T05:14:06.627Z,93.67
2022-10-19T05:14:40.548Z,93.82
2022-10-19T05:15:14.307Z,93.99
2022-10-19T05:15:55.934Z,93.87
2022-10-19T05:16:27.501Z,93.97
2022-10-19T05:16:59.011Z,93.97
2022-10-19T05:17:32.074Z,93.91
2022-10-19T05:18:03.994Z,94.03
2022-10-19T05:18:35.573Z,94.08
2022-10-19T05:19:07.175Z,94.10
2022-10-19T05:19:38.695Z,94.22
2022-10-19T05:20:13.668Z,94.25
2022-10-19T05:20:45.191Z,94.22
2022-10-19T05:21:17.513Z,94.27
2022-10-19T05:21:49.077Z,94.29
2022-10-19T05:22:20.596Z,94.30
2022-10-19T05:22:52.118Z,94.41
2022-10-19T05:23:23.685Z,94.35
2022-10-19T05:23:56.503Z,94.09
2022-10-19T05:24:28.044Z,94.40
2022-10-19T05:24:59.582Z,94.50
2022-10-19T05:25:31.094Z,94.60
2022-10-19T05:26:07.794Z,94.64
2022-10-19T05:26:39.358Z,94.69
2022-10-19T05:27:11.101Z,94.64
2022-10-19T05:27:42.795Z,94.57
2022-10-19T05:28:14.343Z,94.67
2022-10-19T05:29:04.741Z,94.72
2022-10-19T05:29:36.423Z,94.88
2022-10-19T05:30:08.734Z,94.66
2022-10-19T05:30:40.299Z,94.77
2022-10-19T05:31:14.414Z,94.62
2022-10-19T05:31:45.984Z,94.34
2022-10-19T05:32:17.573Z,94.53
2022-10-19T05:32:49.170Z,94.48
2022-10-19T05:33:20.673Z,94.44
2022-10-19T05:33:52.374Z,94.37
2022-10-19T05:34:24.013Z,94.17
2022-10-19T05:34:55.603Z,94.01
2022-10-19T05:35:27.156Z,94.18
2022-10-19T05:35:58.670Z,94.31
2022-10-19T05:36:36.869Z,94.13
2022-10-19T05:37:08.450Z,94.37
2022-10-19T05:37:39.975Z,94.02
2022-10-19T05:38:11.508Z,94.15
2022-10-19T05:38:45.143Z,94.04
2022-10-19T05:39:18.418Z,94.20
2022-10-19T05:39:49.920Z,94.06
2022-10-19T05:40:21.467Z,94.14
2022-10-19T05:40:53.778Z,94.35
2022-10-19T05:41:26.762Z,94.31
2022-10-19T05:41:58.278Z,94.28
2022-10-19T05:42:29.835Z,94.38
2022-10-19T05:43:01.344Z,94.54
2022-10-19T05:43:32.950Z,94.69
2022-10-19T05:44:05.891Z,94.55
2022-10-19T05:45:13.820Z,94.51
2022-10-19T05:45:45.322Z,94.62
2022-10-19T05:46:18.243Z,94.50
2022-10-19T05:46:50.857Z,94.43
2022-10-19T05:47:22.401Z,94.49
2022-10-19T05:47:54.187Z,94.61
2022-10-19T05:48:25.923Z,94.50
2022-10-19T05:48:58.438Z,94.55
2022-10-19T05:49:30.134Z,94.64
2022-10-19T05:50:01.703Z,94.67
2022-10-19T05:50:33.245Z,94.64
2022-10-19T05:51:06.614Z,94.63
2022-10-19T05:51:38.302Z,94.50
2022-10-19T05:52:10.683Z,94.45
2022-10-19T05:52:42.192Z,94.47
2022-10-19T05:53:13.696Z,94.67
2022-10-19T05:53:45.639Z,94.61
2022-10-19T05:54:17.341Z,94.57
2022-10-19T05:54:48.892Z,94.63
2022-10-19T05:55:20.416Z,94.67
2022-10-19T05:55:51.925Z,94.71
2022-10-19T05:56:25.891Z,94.67
2022-10-19T05:56:57.403Z,94.55
2022-10-19T05:57:31.719Z,94.70
2022-10-19T05:58:03.490Z,94.76
2022-10-19T05:58:35.694Z,94.77
2022-10-19T05:59:08.545Z,94.66
2022-10-19T05:59:40.063Z,94.65
2022-10-19T06:00:12.075Z,94.57
2022-10-19T06:00:43.774Z,94.49
2022-10-19T06:01:16.262Z,94.45
2022-10-19T06:01:48.353Z,94.50
2022-10-19T06:02:19.879Z,94.26
2022-10-19T06:02:54.639Z,94.46
2022-10-19T06:03:29.346Z,94.39
2022-10-19T06:04:02.144Z,94.41
2022-10-19T06:04:33.774Z,94.35
2022-10-19T06:05:05.744Z,94.23
2022-10-19T06:05:37.380Z,94.23
2022-10-19T06:06:09.533Z,94.12
2022-10-19T06:06:42.575Z,94.08
2022-10-19T06:07:14.191Z,93.96
2022-10-19T06:07:45.743Z,93.91
2022-10-19T06:08:18.444Z,93.71
2022-10-19T06:08:50.818Z,93.73
2022-10-19T06:09:22.577Z,94.07
2022-10-19T06:09:54.095Z,94.02
2022-10-19T06:10:25.649Z,94.02
2022-10-19T06:11:11.269Z,93.97
2022-10-19T06:11:43.493Z,93.93
2022-10-19T06:12:16.395Z,93.92
2022-10-19T06:12:48.065Z,93.73
2022-10-19T06:13:19.967Z,93.78
2022-10-19T06:13:53.797Z,93.78
2022-10-19T06:14:25.434Z,93.93
2022-10-19T06:14:56.960Z,93.77
2022-10-19T06:15:28.520Z,93.91
2022-10-19T06:16:00.105Z,93.74
2022-10-19T06:16:32.761Z,93.73
2022-10-19T06:17:13.307Z,93.89
2022-10-19T06:17:44.892Z,93.97
2022-10-19T06:18:16.406Z,93.91
2022-10-19T06:18:47.955Z,93.80
2022-10-19T06:19:19.527Z,93.83
2022-10-19T06:19:51.040Z,93.77
2022-10-19T06:20:22.563Z,93.91
2022-10-19T06:20:54.133Z,93.95
2022-10-19T06:21:28.945Z,93.98
2022-10-19T06:22:00.461Z,93.88
2022-10-19T06:22:31.991Z,93.78
2022-10-19T06:23:05.474Z,93.71
2022-10-19T06:23:37.774Z,93.86
2022-10-19T06:24:11.102Z,93.85
2022-10-19T06:24:42.608Z,93.97
2022-10-19T06:25:17.970Z,93.87
2022-10-19T06:25:51.821Z,93.94
2022-10-19T06:26:24.334Z,93.72
2022-10-19T06:26:55.863Z,93.68
2022-10-19T06:27:27.458Z,93.81
2022-10-19T06:27:59.821Z,93.85
2022-10-19T06:28:31.398Z,93.71
2022-10-19T06:29:04.133Z,93.48
2022-10-19T06:29:35.803Z,92.82
2022-10-19T06:30:07.929Z,92.49
2022-10-19T06:30:40.889Z,92.34
2022-10-19T06:31:13.680Z,92.14
2022-10-19T06:31:46.415Z,92.00
2022-10-19T06:32:18.013Z,92.02
2022-10-19T06:32:49.614Z,91.91
2022-10-19T06:33:21.200Z,91.93
2022-10-19T06:33:52.928Z,92.24
2022-10-19T06:34:25.001Z,92.29
2022-10-19T06:34:56.800Z,92.34
2022-10-19T06:35:28.411Z,92.39
2022-10-19T06:36:14.433Z,92.48
2022-10-19T06:36:45.988Z,92.81
2022-10-19T06:37:17.500Z,92.80
2022-10-19T06:37:49.106Z,92.64
2022-10-19T06:38:20.734Z,92.55
2022-10-19T06:38:53.223Z,92.33
2022-10-19T06:39:24.733Z,92.20
2022-10-19T06:39:56.337Z,92.39
2022-10-19T06:40:28.020Z,92.35
2022-10-19T06:41:00.506Z,92.43
2022-10-19T06:41:32.664Z,92.35
2022-10-19T06:42:04.314Z,92.42
2022-10-19T06:42:39.091Z,92.61
2022-10-19T06:43:10.623Z,92.70
2022-10-19T06:43:43.469Z,92.67
2022-10-19T06:44:15.019Z,92.57
2022-10-19T06:44:46.520Z,92.60
2022-10-19T06:45:18.380Z,92.47
2022-10-19T06:45:49.910Z,92.32
2022-10-19T06:46:26.194Z,92.16
2022-10-19T06:46:57.814Z,91.41
2022-10-19T06:47:33.127Z,89.97
2022-10-19T06:48:07.712Z,87.85
2022-10-19T06:48:39.473Z,86.44
2022-10-19T06:49:13.092Z,85.22
2022-10-19T06:49:44.622Z,84.31
2022-10-19T06:50:16.327Z,83.97
2022-10-19T06:50:56.142Z,85.00
2022-10-19T06:51:29.584Z,85.20
2022-10-19T06:52:01.403Z,85.39
2022-10-19T06:52:34.627Z,85.72
2022-10-19T06:53:06.331Z,85.74
2022-10-19T06:53:37.900Z,85.40
2022-10-19T06:54:09.396Z,84.89
2022-10-19T06:54:40.912Z,84.28
2022-10-19T06:55:12.801Z,83.57
2022-10-19T06:55:44.321Z,82.70
2022-10-19T06:56:15.950Z,82.15
2022-10-19T06:56:47.548Z,81.23
2022-10-19T06:57:19.078Z,80.83
2022-10-19T06:57:50.640Z,80.96
2022-10-19T06:58:22.219Z,82.10
2022-10-19T06:58:54.769Z,83.02
2022-10-19T06:59:26.287Z,83.20
2022-10-19T06:59:57.834Z,83.60
2022-10-19T07:00:30.635Z,83.79
2022-10-19T07:01:03.461Z,83.84
2022-10-19T07:01:35.021Z,82.75
2022-10-19T07:02:06.651Z,82.16
2022-10-19T07:02:38.157Z,81.82
2022-10-19T07:03:09.722Z,81.61
2022-10-19T07:03:41.621Z,81.08
2022-10-19T07:04:13.182Z,80.56
2022-10-19T07:04:44.717Z,79.20
2022-10-19T07:05:16.224Z,79.04
2022-10-19T07:05:53.937Z,77.88
2022-10-19T07:06:27.035Z,76.75
2022-10-19T07:07:00.193Z,75.91
2022-10-19T07:07:31.897Z,75.16
2022-10-19T07:08:03.855Z,75.49
2022-10-19T07:08:37.271Z,76.11
2022-10-19T07:09:08.796Z,77.51
2022-10-19T07:09:40.371Z,79.20
2022-10-19T07:10:12.467Z,80.32
2022-10-19T07:10:44.002Z,80.37
2022-10-19T07:11:18.232Z,80.21
2022-10-19T07:11:56.053Z,80.76
2022-10-19T07:12:27.610Z,81.27
2022-10-19T07:12:59.219Z,82.32
2022-10-19T07:13:31.214Z,83.02
2022-10-19T07:14:02.755Z,83.46
2022-10-19T07:14:38.681Z,84.49
2022-10-19T07:15:10.569Z,84.03
2022-10-19T07:15:42.107Z,84.10
2022-10-19T07:16:19.667Z,84.62
2022-10-19T07:16:53.184Z,85.25
2022-10-19T07:17:24.719Z,85.56
2022-10-19T07:17:56.234Z,85.79
2022-10-19T07:18:28.001Z,85.91
2022-10-19T07:19:00.375Z,85.53